Airfield :







YOU CAN JOIN US ON...

 
LOGIN :

Register | Disclaimer

   EN    FR    IT 

 









Legend :    VFR   Marginal VFR   IFR   Intensive IFR   Very Intensive IFR
Visi :
Ceiling :
>= 8 km
>= 3000ft
5 to 8 km
1000 to 3000 ft
1500m to 5 km
500 to 1000 ft
800 to 1500m
200 to 500 ft
< 800m
< 200 ft
Symbols :   Thunderstorms  Fog  Heavy snow  Heavy precipitations  Wind > 20 kt






- Airport Elevation : 23 ft
- IATA code : STT


TIST - King

CURRENT METAR :
  • 231853Z 03009KT 10SM FEW037 28/19 A2996 RMK AO2 SLP145 T02780189 PNO $

EXPIRED METARs :
  • 231753Z 04009G16KT 10SM FEW055 28/18 A2998 RMK AO2 SLP153 6//// T02780183 10283 20250 58021 PNO $
  • 231653Z 05010G16KT 10SM FEW028 28/18 A3000 RMK AO2 SLP160 T02780183 PNO $
  • 231553Z 02009KT 340V050 10SM FEW025 28/19 A3002 RMK AO2 SLP167 T02780189 PNO $
  • 231453Z 02008KT 10SM FEW025 28/19 A3004 RMK AO2 SLP174 6//// T02780189 51017 PNO $

TAF TIST
Valid from the 23 at 18:00 until the 24 at 18:00 UTC


231730Z 2318/2418 05010G21KT P6SM FEW030
FM232300 06006KT P6SM FEW025 SCT050
FM241500 12010KT P6SM SCT030
TJZS FIR / North America



MET'MAP, your aeronautical weather chart ! - Copyright ORBIFLY December 2007 - Disclaimer

ORBIFLY MET'MAP TEAM :

Programming & Development : Alexandra Zaïnal
Original concept : Baudouin d'Aumeries
Technical & hardware support : Manuel Goepfert
Assistance : Marc-Olivier Méhu




SOURCES & CREDITS :

   NOAA